Time;durP1;ratioP1;P1;durP2;ratioP2;P2;SDS_P1;SDS_P2;PMS_P1;PMS_P2;Temp;Humidity;BMP_temperature;BMP_pressure;BME280_temperature;BME280_humidity;BME280_pressure;Samples;Min_cycle;Max_cycle;Signal;HPM_P1;HPM_P2
2023/02/13 10:12:20;;;;;;;20.43;18.90;;;9.40;99.90;;;;;;5085922;27;20904;-76
2023/02/13 10:14:58;;;;;;;19.73;18.20;;;11.20;99.90;;;;;;5085847;28;20451;-76
2023/02/13 10:17:29;;;;;;;18.80;17.30;;;11.80;99.50;;;;;;5085908;28;20451;-74
2023/02/13 10:20:01;;;;;;;19.57;18.07;;;11.90;99.30;;;;;;5085637;28;20438;-75
2023/02/13 10:22:30;;;;;;;18.97;17.20;;;11.50;99.00;;;;;;5085546;28;20520;-75
2023/02/13 10:25:03;;;;;;;19.10;17.60;;;11.30;99.90;;;;;;5085714;28;20504;-76
2023/02/13 10:27:34;;;;;;;20.07;18.57;;;11.40;99.30;;;;;;5085933;28;20451;-77
2023/02/13 10:30:05;;;;;;;18.47;16.97;;;11.40;99.40;;;;;;5085781;28;20478;-75
2023/02/13 10:32:42;;;;;;;19.07;17.37;;;11.40;99.00;;;;;;5085878;28;20470;-75
2023/02/13 10:35:22;;;;;;;19.77;18.07;;;11.50;99.40;;;;;;5085735;28;20515;-75
2023/02/13 10:37:53;;;;;;;20.23;18.73;;;11.50;99.00;;;;;;5085677;28;20450;-75
2023/02/13 10:40:20;;;;;;;20.63;18.63;;;11.90;97.90;;;;;;5085667;28;20469;-76
2023/02/13 10:42:55;;;;;;;20.47;18.77;;;12.20;97.80;;;;;;5085176;28;20466;-75
2023/02/13 10:45:44;;;;;;;18.83;17.10;;;11.90;97.70;;;;;;5085376;28;20452;-75
2023/02/13 10:48:22;;;;;;;21.13;19.10;;;12.10;97.50;;;;;;5084960;28;20459;-76
2023/02/13 10:51:01;;;;;;;18.80;17.40;;;12.00;97.50;;;;;;5085000;28;20478;-75
2023/02/13 10:53:41;;;;;;;19.00;17.60;;;11.90;98.00;;;;;;5084651;28;20714;-75
2023/02/13 10:56:23;;;;;;;20.07;18.60;;;12.10;97.70;;;;;;5085029;28;20447;-75
2023/02/13 10:59:03;;;;;;;19.20;17.57;;;12.40;96.90;;;;;;5085126;28;20825;-75
2023/02/13 11:01:37;;;;;;;18.20;17.00;;;12.40;96.00;;;;;;5084869;28;20443;-75
2023/02/13 11:04:07;;;;;;;18.13;16.90;;;12.50;96.30;;;;;;5085016;28;20496;-76
2023/02/13 11:06:36;;;;;;;19.70;18.40;;;13.00;95.40;;;;;;5084705;28;20981;-75
2023/02/13 11:09:05;;;;;;;19.67;18.07;;;12.90;94.80;;;;;;5084780;28;20478;-75
2023/02/13 11:11:33;;;;;;;19.27;17.57;;;12.80;94.80;;;;;;5095228;28;20494;-76
2023/02/13 11:14:15;;;;;;;19.43;17.93;;;12.70;95.30;;;;;;5091347;28;20450;-76
2023/02/13 11:16:54;;;;;;;20.93;19.40;;;12.80;94.70;;;;;;5091406;28;20489;-75
2023/02/13 11:19:25;;;;;;;20.67;18.97;;;13.10;93.90;;;;;;5091521;28;20569;-75
2023/02/13 11:21:57;;;;;;;19.80;18.17;;;13.30;93.50;;;;;;5091254;28;20442;-76
2023/02/13 11:24:26;;;;;;;18.37;17.17;;;13.30;93.70;;;;;;5091398;28;20503;-77
2023/02/13 11:26:58;;;;;;;18.63;17.33;;;13.10;93.40;;;;;;5091437;28;20454;-77
2023/02/13 11:29:29;;;;;;;20.33;18.73;;;12.80;93.70;;;;;;5091254;28;20454;-75
2023/02/13 11:32:11;;;;;;;17.10;15.90;;;12.70;93.80;;;;;;5091058;28;20498;-75
2023/02/13 11:34:38;;;;;;;19.17;17.60;;;12.70;93.90;;;;;;5091414;28;20791;-75
2023/02/13 11:37:15;;;;;;;18.13;16.93;;;12.60;94.20;;;;;;5091320;28;20447;-75
2023/02/13 11:39:43;;;;;;;18.47;17.10;;;12.60;93.90;;;;;;5090947;28;21159;-74
2023/02/13 11:42:14;;;;;;;18.77;17.33;;;12.50;94.60;;;;;;5090782;28;20455;-74
2023/02/13 11:44:48;;;;;;;17.60;16.43;;;12.50;94.50;;;;;;5090856;28;20459;-75
2023/02/13 11:47:15;;;;;;;18.97;17.47;;;12.60;94.70;;;;;;5090905;28;20818;-74
2023/02/13 11:49:46;;;;;;;19.53;17.87;;;12.60;94.20;;;;;;5090837;28;20450;-76
2023/02/13 11:52:24;;;;;;;18.63;17.17;;;12.30;94.90;;;;;;5090768;28;20439;-75
2023/02/13 11:54:56;;;;;;;19.77;17.83;;;12.50;95.30;;;;;;5090994;28;20443;-76
2023/02/13 11:57:28;;;;;;;18.80;17.10;;;13.10;93.90;;;;;;5090774;28;20504;-76
2023/02/13 11:59:57;;;;;;;20.27;18.77;;;13.50;93.40;;;;;;5090693;28;20521;-76
2023/02/13 12:02:25;;;;;;;19.30;17.87;;;14.50;91.80;;;;;;5090721;28;20448;-76
2023/02/13 12:04:54;;;;;;;19.40;17.93;;;14.60;90.20;;;;;;5090254;28;20543;-75
2023/02/13 12:07:24;;;;;;;20.27;18.77;;;15.30;88.90;;;;;;5088259;28;20475;-75
2023/02/13 12:09:57;;;;;;;19.40;18.03;;;15.40;86.50;;;;;;5088485;28;20479;-75
2023/02/13 12:12:29;;;;;;;19.33;17.93;;;15.70;88.00;;;;;;5090047;28;20819;-75
2023/02/13 12:15:01;;;;;;;20.73;18.93;;;15.60;84.90;;;;;;5090230;28;20444;-75
2023/02/13 12:17:29;;;;;;;19.40;17.93;;;15.60;85.90;;;;;;5089875;28;20527;-75
2023/02/13 12:19:56;;;;;;;22.60;21.00;;;16.20;83.40;;;;;;5089757;28;20457;-75
2023/02/13 12:22:30;;;;;;;21.13;19.43;;;16.10;84.10;;;;;;5089917;28;20457;-75
2023/02/13 12:25:21;;;;;;;20.73;19.30;;;16.40;81.50;;;;;;5089104;28;20532;-74
2023/02/13 12:28:00;;;;;;;24.33;22.20;;;15.60;82.60;;;;;;5089872;28;20540;-75
2023/02/13 12:31:18;;;;;;;21.73;19.77;;;15.30;84.90;;;;;;5089546;28;20834;-76
2023/02/13 12:34:03;;;;;;;21.30;18.97;;;15.60;84.70;;;;;;5086783;28;20866;-76
2023/02/13 12:36:37;;;;;;;21.83;20.07;;;16.00;82.60;;;;;;5089741;28;20510;-76
2023/02/13 12:39:17;;;;;;;22.10;20.50;;;14.80;85.50;;;;;;5089704;28;20500;-76
2023/02/13 12:41:51;;;;;;;21.13;19.07;;;14.90;85.60;;;;;;5089490;28;20447;-76
2023/02/13 12:44:49;;;;;;;21.97;19.87;;;15.20;85.50;;;;;;5089655;28;20447;-76
2023/02/13 12:47:20;;;;;;;21.93;20.17;;;15.70;84.10;;;;;;5089494;28;20469;-74
2023/02/13 12:50:06;;;;;;;20.00;18.20;;;14.60;86.30;;;;;;5089309;28;20492;-74
2023/02/13 12:53:07;;;;;;;21.87;19.70;;;14.50;88.20;;;;;;5089305;28;20444;-76
2023/02/13 12:55:50;;;;;;;19.70;18.30;;;14.40;87.80;;;;;;5066849;28;20454;-75
2023/02/13 12:58:41;;;;;;;20.37;17.67;;;14.20;88.30;;;;;;5088996;28;20443;-74
2023/02/13 13:01:19;;;;;;;20.60;19.00;;;14.10;89.60;;;;;;5088963;28;20440;-75
2023/02/13 13:03:57;;;;;;;21.83;19.93;;;14.60;87.60;;;;;;5089149;28;20462;-75
2023/02/13 13:06:49;;;;;;;20.47;18.57;;;14.20;89.00;;;;;;5088832;28;20469;-75
2023/02/13 13:09:40;;;;;;;21.07;18.80;;;14.20;90.00;;;;;;5088745;28;20460;-75
2023/02/13 13:12:25;;;;;;;21.77;19.53;;;14.00;90.10;;;;;;5087447;28;20488;-75
2023/02/13 13:14:58;;;;;;;20.10;18.30;;;14.00;89.90;;;;;;5089154;28;20443;-75
2023/02/13 13:17:39;;;;;;;21.93;20.13;;;13.30;91.20;;;;;;5088553;28;20462;-74
2023/02/13 13:20:27;;;;;;;19.60;18.00;;;13.20;92.10;;;;;;5088976;28;20461;-74
2023/02/13 13:23:03;;;;;;;20.10;18.60;;;13.40;92.50;;;;;;5088686;28;20452;-75
2023/02/13 13:25:40;;;;;;;19.37;18.00;;;14.40;90.50;;;;;;5088799;28;20474;-74
2023/02/13 13:28:14;;;;;;;20.50;18.63;;;14.50;89.90;;;;;;5089049;28;20702;-76
2023/02/13 13:30:43;;;;;;;21.17;19.30;;;14.10;90.20;;;;;;5088784;28;20485;-74
2023/02/13 13:33:15;;;;;;;21.23;19.57;;;12.80;92.20;;;;;;5088625;28;20458;-73
2023/02/13 13:35:47;;;;;;;21.47;18.93;;;11.90;94.90;;;;;;5088205;28;20479;-75
2023/02/13 13:38:24;;;;;;;20.00;18.50;;;11.20;97.60;;;;;;5086890;28;20446;-74
2023/02/13 13:40:55;;;;;;;20.10;18.60;;;10.90;99.10;;;;;;5088956;28;20465;-73
2023/02/13 13:43:28;;;;;;;17.90;16.27;;;10.80;99.90;;;;;;5088753;28;20968;-73
2023/02/13 13:46:05;;;;;;;20.10;18.30;;;10.70;99.90;;;;;;5088534;28;20478;-74
2023/02/13 13:48:56;;;;;;;19.50;17.90;;;10.60;99.90;;;;;;5088672;28;20438;-75
2023/02/13 13:51:23;;;;;;;18.60;17.00;;;10.50;99.90;;;;;;5088432;28;21043;-74
2023/02/13 13:54:19;;;;;;;18.57;16.97;;;10.40;99.90;;;;;;5088703;28;20446;-75
2023/02/13 13:57:07;;;;;;;18.83;17.33;;;10.40;99.90;;;;;;5088286;28;21018;-74
2023/02/13 14:00:09;;;;;;;20.17;18.40;;;10.50;99.90;;;;;;5077920;28;20528;-74
2023/02/13 14:02:43;;;;;;;19.40;17.70;;;10.60;99.90;;;;;;5048218;28;20518;-73
2023/02/13 14:05:21;;;;;;;19.33;17.83;;;10.60;99.90;;;;;;5066689;28;20634;-74
2023/02/13 14:07:49;;;;;;;18.97;17.47;;;10.70;99.90;;;;;;5067104;28;20471;-75
2023/02/13 14:10:49;;;;;;;20.53;18.13;;;10.80;99.90;;;;;;5067781;28;20475;-75
2023/02/13 14:13:29;;;;;;;18.40;16.90;;;10.80;99.90;;;;;;5068036;28;20444;-74
2023/02/13 14:15:56;;;;;;;18.57;17.30;;;10.80;99.90;;;;;;5067887;28;20455;-74
2023/02/13 14:18:24;;;;;;;18.90;17.40;;;10.60;99.90;;;;;;5068127;28;20451;-75
2023/02/13 14:20:53;;;;;;;17.27;16.00;;;10.60;99.90;;;;;;5068346;28;20455;-74
2023/02/13 14:23:38;;;;;;;18.00;16.60;;;10.50;99.90;;;;;;5068155;28;20459;-75
2023/02/13 14:26:18;;;;;;;17.77;16.37;;;10.50;99.90;;;;;;5068193;28;20459;-74
2023/02/13 14:28:58;;;;;;;17.57;16.20;;;10.50;99.90;;;;;;5067744;28;20454;-74
2023/02/13 14:31:28;;;;;;;18.10;16.70;;;10.60;99.90;;;;;;5067859;28;20483;-74
2023/02/13 14:33:57;;;;;;;18.00;16.60;;;10.50;99.90;;;;;;5067588;28;20451;-73
2023/02/13 14:36:31;;;;;;;18.80;17.10;;;10.50;99.90;;;;;;5067580;28;20958;-74
2023/02/13 14:39:00;;;;;;;18.00;16.47;;;10.50;99.90;;;;;;5067682;28;20491;-74
2023/02/13 14:41:43;;;;;;;16.93;15.33;;;10.40;99.90;;;;;;5067615;28;20484;-73
2023/02/13 14:44:19;;;;;;;15.47;14.37;;;10.40;99.90;;;;;;5066100;28;20817;-73
2023/02/13 14:46:48;;;;;;;17.07;15.77;;;10.40;99.90;;;;;;5068690;28;20442;-74
2023/02/13 14:49:19;;;;;;;17.70;16.30;;;10.30;99.90;;;;;;5071105;28;20490;-74
2023/02/13 14:51:49;;;;;;;18.57;17.00;;;10.20;99.90;;;;;;5071382;28;20487;-74
2023/02/13 14:54:24;;;;;;;15.53;14.13;;;10.20;99.90;;;;;;5071302;28;20459;-73
2023/02/13 14:56:53;;;;;;;16.90;15.50;;;10.10;99.90;;;;;;5071432;28;20481;-73
2023/02/13 14:59:26;;;;;;;15.67;14.47;;;10.10;99.90;;;;;;5071526;28;20508;-74
2023/02/13 15:01:58;;;;;;;16.40;15.07;;;10.00;99.90;;;;;;5071374;28;20505;-74
2023/02/13 15:04:31;;;;;;;17.47;16.07;;;9.90;99.90;;;;;;5071252;28;20443;-74
2023/02/13 15:07:02;;;;;;;17.47;16.07;;;9.90;99.90;;;;;;5070941;28;20468;-74
2023/02/13 15:09:35;;;;;;;17.10;15.80;;;9.90;99.90;;;;;;5071277;28;20456;-74
2023/02/13 15:12:01;;;;;;;16.13;14.90;;;9.90;99.90;;;;;;5070706;28;20495;-74
2023/02/13 15:14:34;;;;;;;18.00;16.63;;;9.80;99.90;;;;;;5070982;28;20512;-74
2023/02/13 15:17:07;;;;;;;15.70;14.30;;;9.80;99.90;;;;;;5071177;28;20444;-74
2023/02/13 15:19:37;;;;;;;18.73;17.23;;;9.70;99.90;;;;;;5071405;28;20856;-74
2023/02/13 15:22:06;;;;;;;17.57;16.10;;;9.70;99.90;;;;;;5071153;28;20440;-74
2023/02/13 15:24:38;;;;;;;17.47;15.87;;;9.60;99.90;;;;;;5065203;28;20829;-73
2023/02/13 15:27:07;;;;;;;16.63;15.40;;;9.60;99.90;;;;;;5070360;28;20547;-72
2023/02/13 15:29:35;;;;;;;18.10;16.67;;;9.50;99.90;;;;;;5082036;28;20458;-73
2023/02/13 15:32:18;;;;;;;18.03;16.53;;;9.50;99.90;;;;;;5067126;28;20607;-74
2023/02/13 15:34:47;;;;;;;17.10;15.80;;;9.40;99.90;;;;;;5069845;28;20447;-73
2023/02/13 15:37:20;;;;;;;18.77;17.17;;;9.30;99.90;;;;;;5069688;28;20471;-74
2023/02/13 15:39:47;;;;;;;20.83;19.17;;;9.20;99.90;;;;;;5070653;28;20447;-74
2023/02/13 15:42:14;;;;;;;18.90;17.10;;;9.10;99.90;;;;;;5070395;28;20456;-74
2023/02/13 15:44:46;;;;;;;19.47;17.80;;;9.00;99.90;;;;;;5070415;28;20451;-74
2023/02/13 15:47:17;;;;;;;19.80;17.90;;;9.00;99.90;;;;;;5070414;28;20817;-73
2023/02/13 15:49:48;;;;;;;22.83;18.37;;;8.90;99.90;;;;;;5070183;28;20512;-74
2023/02/13 15:52:19;;;;;;;19.23;17.73;;;8.80;99.90;;;;;;5070122;28;20509;-74
2023/02/13 15:54:51;;;;;;;21.23;19.43;;;8.70;99.90;;;;;;5070279;28;20451;-74
2023/02/13 15:57:19;;;;;;;20.73;19.20;;;8.70;99.90;;;;;;5070038;28;20451;-74
2023/02/13 15:59:48;;;;;;;19.90;18.27;;;8.60;99.90;;;;;;5070121;28;20452;-74
2023/02/13 16:02:19;;;;;;;20.07;18.33;;;8.50;99.90;;;;;;5069999;28;20813;-73
2023/02/13 16:04:47;;;;;;;20.00;18.13;;;8.40;99.90;;;;;;5069854;28;20514;-74
2023/02/13 16:07:15;;;;;;;20.43;18.57;;;8.20;99.90;;;;;;5069854;28;20582;-74
2023/02/13 16:09:42;;;;;;;20.77;19.07;;;8.10;99.90;;;;;;5069525;28;20953;-74
2023/02/13 16:12:19;;;;;;;22.10;19.80;;;8.00;99.90;;;;;;5069708;28;20480;-74
2023/02/13 16:14:52;;;;;;;20.27;18.67;;;7.90;99.90;;;;;;5069782;28;20508;-73
2023/02/13 16:17:27;;;;;;;21.40;19.20;;;7.90;99.90;;;;;;5069604;28;20527;-74
2023/02/13 16:19:58;;;;;;;20.33;18.70;;;7.80;99.90;;;;;;5069777;28;20483;-73
2023/02/13 16:22:31;;;;;;;22.23;20.43;;;7.60;99.90;;;;;;5069513;28;20447;-73
2023/02/13 16:25:14;;;;;;;23.17;21.33;;;7.50;99.90;;;;;;5069312;28;20534;-74
2023/02/13 16:27:43;;;;;;;21.60;19.70;;;7.40;99.90;;;;;;5069453;28;20530;-74
2023/02/13 16:30:30;;;;;;;20.27;18.57;;;7.40;99.90;;;;;;5069554;28;20447;-74
2023/02/13 16:33:20;;;;;;;22.50;20.50;;;7.20;99.90;;;;;;5069330;28;20479;-74
2023/02/13 16:35:49;;;;;;;21.50;19.60;;;7.20;99.90;;;;;;5069405;28;20478;-74
2023/02/13 16:38:27;;;;;;;22.03;19.83;;;7.10;99.90;;;;;;5069298;28;20939;-74
2023/02/13 16:40:55;;;;;;;19.70;18.03;;;7.00;99.90;;;;;;5069411;28;20844;-74
2023/02/13 16:43:43;;;;;;;21.30;19.50;;;6.90;99.90;;;;;;5069497;28;20454;-73
2023/02/13 16:46:24;;;;;;;21.70;20.00;;;6.90;99.90;;;;;;5069165;28;20456;-75
2023/02/13 16:49:13;;;;;;;21.17;19.17;;;6.80;99.90;;;;;;5069295;28;20447;-73
2023/02/13 16:51:42;;;;;;;27.40;21.17;;;6.70;99.90;;;;;;5069237;28;20486;-72
2023/02/13 16:54:20;;;;;;;21.47;19.67;;;6.60;99.90;;;;;;5069084;28;20505;-74
2023/02/13 16:56:49;;;;;;;21.80;19.70;;;6.50;99.90;;;;;;5069028;28;20462;-74
2023/02/13 16:59:25;;;;;;;21.17;19.40;;;6.40;99.90;;;;;;5069060;28;20524;-74
2023/02/13 17:02:14;;;;;;;22.77;20.73;;;6.30;99.90;;;;;;5069466;28;20443;-75
2023/02/13 17:04:43;;;;;;;21.10;19.00;;;6.20;99.90;;;;;;5068958;28;20452;-74
2023/02/13 17:07:15;;;;;;;21.03;19.13;;;6.10;99.90;;;;;;5068822;28;20884;-74
2023/02/13 17:09:42;;;;;;;24.60;22.30;;;6.00;99.90;;;;;;5068092;28;20869;-74
2023/02/13 17:12:15;;;;;;;25.37;19.73;;;6.00;99.90;;;;;;5068953;28;20839;-74
2023/02/13 17:14:42;;;;;;;22.37;20.30;;;5.90;99.90;;;;;;5069126;28;20460;-73
2023/02/13 17:17:15;;;;;;;22.73;20.70;;;5.80;99.90;;;;;;5068954;28;20452;-74
2023/02/13 17:19:41;;;;;;;22.50;20.50;;;5.80;99.90;;;;;;5068448;28;20447;-73
2023/02/13 17:22:15;;;;;;;23.13;20.73;;;5.70;99.90;;;;;;5068460;28;20475;-73
2023/02/13 17:24:42;;;;;;;23.23;21.10;;;5.60;99.90;;;;;;5068494;28;20977;-74
2023/02/13 17:27:09;;;;;;;21.67;19.60;;;5.50;99.90;;;;;;5068720;28;20447;-74
2023/02/13 17:29:36;;;;;;;22.17;20.07;;;5.50;99.90;;;;;;5068783;28;20504;-73
2023/02/13 17:32:03;;;;;;;21.50;19.40;;;5.40;99.90;;;;;;5068467;28;20827;-74
2023/02/13 17:34:31;;;;;;;22.53;20.60;;;5.40;99.90;;;;;;5068384;28;20994;-74
2023/02/13 17:36:58;;;;;;;26.20;23.70;;;5.30;99.90;;;;;;5068788;28;20486;-73
2023/02/13 17:39:24;;;;;;;22.80;20.67;;;5.30;99.90;;;;;;5068830;28;20455;-72
2023/02/13 17:41:51;;;;;;;23.60;21.30;;;5.20;99.90;;;;;;5068887;28;20467;-73
2023/02/13 17:44:18;;;;;;;24.80;22.40;;;5.20;99.90;;;;;;5068367;28;20452;-73
2023/02/13 17:46:44;;;;;;;21.30;19.13;;;5.20;99.90;;;;;;5068281;28;20440;-74
2023/02/13 17:49:11;;;;;;;24.00;21.60;;;5.10;99.90;;;;;;5068538;28;20455;-73
2023/02/13 17:51:40;;;;;;;27.87;21.37;;;5.00;99.90;;;;;;5068743;28;20451;-73
2023/02/13 17:54:10;;;;;;;24.73;22.40;;;5.00;99.90;;;;;;5069191;28;20456;-74
2023/02/13 17:56:37;;;;;;;24.17;21.73;;;4.90;99.90;;;;;;5068879;28;20550;-74
2023/02/13 17:59:04;;;;;;;25.13;22.83;;;4.80;99.90;;;;;;5068808;28;20444;-74
